Time,TemperatureF,DewpointF,PressureIn,WindDirection,WindDirectionDegrees,WindSpeedMPH,WindSpeedGustMPH,Humidity,HourlyPrecipIn,Conditions,Clouds,dailyrainin,SoftwareType,DateUTC
2013-09-18 00:04:00,66.6,61.6,30.17,South,180,0.0,0.0,84,0.00,,,0.00,WUHU21623XXSP,2013-09-18 04:04:00,
2013-09-18 00:09:00,66.6,61.6,30.17,South,180,0.0,0.0,84,0.00,,,0.00,WUHU21623XXSP,2013-09-18 04:09:00,
2013-09-18 00:14:00,66.7,62.1,30.17,South,180,0.0,0.0,85,0.00,,,0.00,WUHU21623XXSP,2013-09-18 04:14:00,
2013-09-18 00:19:00,66.7,62.1,30.17,SSW,202,0.0,0.0,85,0.00,,,0.00,WUHU21623XXSP,2013-09-18 04:19:00,
2013-09-18 00:24:00,66.7,62.1,30.17,East,90,0.0,0.0,85,0.00,,,0.00,WUHU21623XXSP,2013-09-18 04:24:00,
2013-09-18 00:29:00,66.9,62.2,30.17,West,270,0.0,0.0,85,0.00,,,0.00,WUHU21623XXSP,2013-09-18 04:29:00,
2013-09-18 00:34:00,67.3,62.6,30.17,SSW,202,0.0,0.0,85,0.00,,,0.00,WUHU21623XXSP,2013-09-18 04:34:00,
2013-09-18 00:39:00,67.3,62.3,30.16,NNE,22,0.0,0.0,84,0.00,,,0.00,WUHU21623XXSP,2013-09-18 04:39:00,
2013-09-18 00:44:00,67.6,62.6,30.17,SSW,202,0.0,0.0,84,0.00,,,0.00,WUHU21623XXSP,2013-09-18 04:44:00,
2013-09-18 00:49:00,67.6,62.6,30.17,South,180,0.0,0.0,84,0.00,,,0.00,WUHU21623XXSP,2013-09-18 04:49:00,
2013-09-18 00:54:00,67.8,62.5,30.17,South,180,0.0,0.0,83,0.00,,,0.00,WUHU21623XXSP,2013-09-18 04:54:00,
2013-09-18 00:59:00,67.8,62.8,30.17,SSW,202,0.0,0.0,84,0.00,,,0.00,WUHU21623XXSP,2013-09-18 04:59:00,
2013-09-18 01:04:00,67.6,62.6,30.16,SSW,202,0.0,0.0,84,0.00,,,0.00,WUHU21623XXSP,2013-09-18 05:04:00,
2013-09-18 01:09:00,67.6,62.6,30.16,East,90,0.0,0.0,84,0.00,,,0.00,WUHU21623XXSP,2013-09-18 05:09:00,
2013-09-18 01:14:00,67.6,62.6,30.16,East,90,0.0,0.0,84,0.00,,,0.00,WUHU21623XXSP,2013-09-18 05:14:00,
2013-09-18 01:19:00,67.6,62.6,30.16,SSW,202,0.0,0.0,84,0.00,,,0.00,WUHU21623XXSP,2013-09-18 05:19:00,
2013-09-18 01:24:00,67.6,62.6,30.16,SSW,202,0.0,0.0,84,0.00,,,0.00,WUHU21623XXSP,2013-09-18 05:24:00,
2013-09-18 01:29:00,67.6,62.6,30.17,ESE,112,0.0,0.0,84,0.00,,,0.00,WUHU21623XXSP,2013-09-18 05:29:00,
2013-09-18 01:34:00,67.3,62.0,30.16,SSW,202,0.0,0.0,83,0.00,,,0.00,WUHU21623XXSP,2013-09-18 05:34:00,
2013-09-18 01:39:00,67.3,62.0,30.17,East,90,0.0,0.0,83,0.00,,,0.00,WUHU21623XXSP,2013-09-18 05:39:00,
2013-09-18 01:44:00,67.3,62.0,30.16,ESE,112,0.0,0.0,83,0.00,,,0.00,WUHU21623XXSP,2013-09-18 05:44:00,
2013-09-18 01:49:00,67.3,62.0,30.16,South,180,0.0,0.0,83,0.00,,,0.00,WUHU21623XXSP,2013-09-18 05:49:00,
2013-09-18 01:54:00,67.3,62.0,30.16,East,90,0.0,0.0,83,0.00,,,0.00,WUHU21623XXSP,2013-09-18 05:54:00,
2013-09-18 01:59:00,67.5,61.8,30.16,ESE,112,0.0,0.0,82,0.00,,,0.00,WUHU21623XXSP,2013-09-18 05:59:00,
2013-09-18 02:04:00,67.3,61.6,30.17,South,180,0.0,0.0,82,0.00,,,0.00,WUHU21623XXSP,2013-09-18 06:04:00,
2013-09-18 02:09:00,67.3,61.6,30.17,ESE,112,0.0,0.0,82,0.00,,,0.00,WUHU21623XXSP,2013-09-18 06:09:00,
2013-09-18 02:14:00,67.3,61.6,30.16,ESE,112,0.0,0.0,82,0.00,,,0.00,WUHU21623XXSP,2013-09-18 06:14:00,
2013-09-18 02:19:00,67.1,61.4,30.17,WNW,292,0.0,0.0,82,0.00,,,0.00,WUHU21623XXSP,2013-09-18 06:19:00,
2013-09-18 02:24:00,67.1,61.8,30.16,ESE,112,0.0,0.0,83,0.00,,,0.00,WUHU21623XXSP,2013-09-18 06:24:00,
2013-09-18 02:30:00,67.1,61.4,30.17,NNE,22,0.0,0.0,82,0.00,,,0.00,WUHU21623XXSP,2013-09-18 06:30:00,
2013-09-18 02:35:00,66.9,61.3,30.17,ESE,112,0.0,0.0,82,0.00,,,0.00,WUHU21623XXSP,2013-09-18 06:35:00,
2013-09-18 02:40:00,66.9,61.6,30.17,SSW,202,0.0,0.0,83,0.00,,,0.00,WUHU21623XXSP,2013-09-18 06:40:00,
2013-09-18 02:45:00,66.7,61.4,30.17,SSW,202,0.0,0.0,83,0.00,,,0.00,WUHU21623XXSP,2013-09-18 06:45:00,
2013-09-18 02:50:00,66.7,61.4,30.17,South,180,0.0,0.0,83,0.00,,,0.00,WUHU21623XXSP,2013-09-18 06:50:00,
2013-09-18 02:55:00,66.7,61.4,30.16,SSW,202,0.0,0.0,83,0.00,,,0.00,WUHU21623XXSP,2013-09-18 06:55:00,
2013-09-18 03:00:00,66.7,61.4,30.16,East,90,0.0,0.0,83,0.00,,,0.00,WUHU21623XXSP,2013-09-18 07:00:00,
2013-09-18 03:05:00,66.6,61.2,30.16,South,180,0.0,0.0,83,0.00,,,0.00,WUHU21623XXSP,2013-09-18 07:05:00,
2013-09-18 03:10:00,66.6,60.9,30.16,SSW,202,0.0,0.0,82,0.00,,,0.00,WUHU21623XXSP,2013-09-18 07:10:00,
2013-09-18 03:15:00,66.7,61.1,30.16,ESE,112,0.0,0.0,82,0.00,,,0.00,WUHU21623XXSP,2013-09-18 07:15:00,
2013-09-18 03:20:00,66.7,61.1,30.16,NNE,22,0.0,0.0,82,0.00,,,0.00,WUHU21623XXSP,2013-09-18 07:20:00,
2013-09-18 03:25:00,66.7,61.1,30.16,West,270,0.0,0.0,82,0.00,,,0.00,WUHU21623XXSP,2013-09-18 07:25:00,
2013-09-18 03:30:00,66.7,61.1,30.16,SSW,202,0.0,0.0,82,0.00,,,0.00,WUHU21623XXSP,2013-09-18 07:30:00,
2013-09-18 03:35:00,66.7,61.1,30.16,ESE,112,0.0,0.0,82,0.00,,,0.00,WUHU21623XXSP,2013-09-18 07:35:00,
2013-09-18 03:40:00,66.6,60.9,30.16,South,180,0.0,0.0,82,0.00,,,0.00,WUHU21623XXSP,2013-09-18 07:40:00,
2013-09-18 03:45:00,66.6,60.9,30.16,ESE,112,0.0,0.0,82,0.00,,,0.00,WUHU21623XXSP,2013-09-18 07:45:00,
2013-09-18 03:50:00,66.4,61.1,30.16,West,270,0.0,0.0,83,0.00,,,0.00,WUHU21623XXSP,2013-09-18 07:50:00,
2013-09-18 03:55:00,66.0,60.7,30.16,ESE,112,0.0,0.0,83,0.00,,,0.00,WUHU21623XXSP,2013-09-18 07:55:00,
2013-09-18 04:00:00,66.0,60.7,30.15,ESE,112,0.0,0.0,83,0.00,,,0.00,WUHU21623XXSP,2013-09-18 08:00:00,
2013-09-18 04:05:00,66.0,61.0,30.15,ESE,112,0.0,0.0,84,0.00,,,0.00,WUHU21623XXSP,2013-09-18 08:05:00,
2013-09-18 04:10:00,65.8,60.8,30.15,ESE,112,0.0,0.0,84,0.00,,,0.00,WUHU21623XXSP,2013-09-18 08:10:00,
2013-09-18 04:15:00,65.8,60.8,30.15,ESE,112,0.0,0.0,84,0.00,,,0.00,WUHU21623XXSP,2013-09-18 08:15:00,
2013-09-18 04:20:00,65.8,60.8,30.15,South,180,0.0,0.0,84,0.00,,,0.00,WUHU21623XXSP,2013-09-18 08:20:00,
2013-09-18 04:25:00,65.7,60.7,30.15,South,180,0.0,0.0,84,0.00,,,0.00,WUHU21623XXSP,2013-09-18 08:25:00,
2013-09-18 04:30:00,65.5,60.5,30.15,ESE,112,0.0,0.0,84,0.00,,,0.00,WUHU21623XXSP,2013-09-18 08:30:00,
2013-09-18 04:35:00,65.3,60.7,30.15,NNE,22,0.0,0.0,85,0.00,,,0.00,WUHU21623XXSP,2013-09-18 08:35:00,
2013-09-18 04:40:00,65.3,60.7,30.15,ESE,112,0.0,0.0,85,0.00,,,0.00,WUHU21623XXSP,2013-09-18 08:40:00,
2013-09-18 04:45:00,65.3,60.7,30.15,South,180,0.0,0.0,85,0.00,,,0.00,WUHU21623XXSP,2013-09-18 08:45:00,
2013-09-18 04:50:00,65.1,60.5,30.15,ESE,112,0.0,0.0,85,0.00,,,0.00,WUHU21623XXSP,2013-09-18 08:50:00,
2013-09-18 04:55:00,65.1,60.5,30.15,NNE,22,0.0,0.0,85,0.00,,,0.00,WUHU21623XXSP,2013-09-18 08:55:00,
2013-09-18 05:00:00,65.1,60.5,30.15,South,180,0.0,0.0,85,0.00,,,0.00,WUHU21623XXSP,2013-09-18 09:00:00,
2013-09-18 05:05:00,65.1,60.5,30.15,South,180,0.0,0.0,85,0.00,,,0.00,WUHU21623XXSP,2013-09-18 09:05:00,
2013-09-18 05:10:00,65.1,60.5,30.15,South,180,0.0,0.0,85,0.00,,,0.00,WUHU21623XXSP,2013-09-18 09:10:00,
2013-09-18 05:15:00,65.1,60.8,30.15,ESE,112,0.0,0.0,86,0.00,,,0.00,WUHU21623XXSP,2013-09-18 09:15:00,
2013-09-18 05:20:00,65.1,60.8,30.15,East,90,0.0,0.0,86,0.00,,,0.00,WUHU21623XXSP,2013-09-18 09:20:00,
2013-09-18 05:25:00,65.1,60.8,30.15,South,180,0.0,0.0,86,0.00,,,0.00,WUHU21623XXSP,2013-09-18 09:25:00,
2013-09-18 05:30:00,65.1,60.8,30.16,South,180,0.0,0.0,86,0.00,,,0.00,WUHU21623XXSP,2013-09-18 09:30:00,
2013-09-18 05:35:00,65.1,60.8,30.16,ESE,112,0.0,0.0,86,0.00,,,0.00,WUHU21623XXSP,2013-09-18 09:35:00,
2013-09-18 05:40:00,64.9,60.7,30.16,South,180,0.0,0.0,86,0.00,,,0.00,WUHU21623XXSP,2013-09-18 09:40:00,
2013-09-18 05:45:00,64.9,60.7,30.16,ESE,112,0.0,0.0,86,0.00,,,0.00,WUHU21623XXSP,2013-09-18 09:45:00,
2013-09-18 05:50:00,64.9,60.7,30.16,ESE,112,0.0,0.0,86,0.00,,,0.00,WUHU21623XXSP,2013-09-18 09:50:00,
2013-09-18 05:56:00,64.9,60.7,30.16,ESE,112,0.0,0.0,86,0.00,,,0.00,WUHU21623XXSP,2013-09-18 09:56:00,
2013-09-18 06:01:00,64.9,60.7,30.16,ESE,112,0.0,0.0,86,0.00,,,0.00,WUHU21623XXSP,2013-09-18 10:01:00,
2013-09-18 06:06:00,64.9,60.7,30.16,East,90,0.0,0.0,86,0.00,,,0.00,WUHU21623XXSP,2013-09-18 10:06:00,
2013-09-18 06:11:00,65.1,60.8,30.16,South,180,0.0,0.0,86,0.00,,,0.00,WUHU21623XXSP,2013-09-18 10:11:00,
2013-09-18 06:16:00,64.9,60.7,30.16,ESE,112,0.0,0.0,86,0.00,,,0.00,WUHU21623XXSP,2013-09-18 10:16:00,
2013-09-18 06:21:00,64.9,60.7,30.16,ESE,112,0.0,0.0,86,0.00,,,0.00,WUHU21623XXSP,2013-09-18 10:21:00,
2013-09-18 06:26:00,64.8,60.5,30.16,ESE,112,0.0,0.0,86,0.00,,,0.00,WUHU21623XXSP,2013-09-18 10:26:00,
2013-09-18 06:31:00,64.6,60.3,30.17,ESE,112,0.0,0.0,86,0.00,,,0.00,WUHU21623XXSP,2013-09-18 10:31:00,
2013-09-18 06:36:00,64.6,60.3,30.16,ESE,112,0.0,0.0,86,0.00,,,0.00,WUHU21623XXSP,2013-09-18 10:36:00,
2013-09-18 06:41:00,64.2,60.0,30.16,ESE,112,0.0,0.0,86,0.00,,,0.00,WUHU21623XXSP,2013-09-18 10:41:00,
2013-09-18 06:46:00,64.2,60.0,30.16,ESE,112,0.0,0.0,86,0.00,,,0.00,WUHU21623XXSP,2013-09-18 10:46:00,
2013-09-18 06:51:00,63.7,59.4,30.16,South,180,0.0,0.0,86,0.00,,,0.00,WUHU21623XXSP,2013-09-18 10:51:00,
2013-09-18 06:56:00,63.5,59.3,30.16,NNE,22,0.0,0.0,86,0.00,,,0.00,WUHU21623XXSP,2013-09-18 10:56:00,
2013-09-18 07:01:00,63.3,59.4,30.17,ESE,112,0.0,0.0,87,0.00,,,0.00,WUHU21623XXSP,2013-09-18 11:01:00,
2013-09-18 07:06:00,63.1,59.2,30.17,ESE,112,0.0,0.0,87,0.00,,,0.00,WUHU21623XXSP,2013-09-18 11:06:00,
2013-09-18 07:11:00,63.0,59.1,30.17,ESE,112,0.0,0.0,87,0.00,,,0.00,WUHU21623XXSP,2013-09-18 11:11:00,
2013-09-18 07:16:00,63.0,59.1,30.17,East,90,0.0,0.0,87,0.00,,,0.00,WUHU21623XXSP,2013-09-18 11:16:00,
2013-09-18 07:21:00,62.8,58.9,30.18,ESE,112,0.0,0.0,87,0.00,,,0.00,WUHU21623XXSP,2013-09-18 11:21:00,
2013-09-18 07:26:00,62.6,58.7,30.18,ESE,112,0.0,0.0,87,0.00,,,0.00,WUHU21623XXSP,2013-09-18 11:26:00,
2013-09-18 07:31:00,62.4,58.5,30.18,ESE,112,0.0,0.0,87,0.00,,,0.00,WUHU21623XXSP,2013-09-18 11:31:00,
2013-09-18 07:36:00,62.4,58.9,30.18,East,90,0.0,0.0,88,0.00,,,0.00,WUHU21623XXSP,2013-09-18 11:36:00,
2013-09-18 07:41:00,62.4,58.9,30.18,ESE,112,0.0,0.0,88,0.00,,,0.00,WUHU21623XXSP,2013-09-18 11:41:00,
2013-09-18 07:46:00,62.4,58.9,30.18,East,90,0.0,0.0,88,0.00,,,0.00,WUHU21623XXSP,2013-09-18 11:46:00,
2013-09-18 07:51:00,62.4,58.9,30.18,East,90,0.0,0.0,88,0.00,,,0.00,WUHU21623XXSP,2013-09-18 11:51:00,
2013-09-18 07:56:00,62.4,58.9,30.18,South,180,0.0,0.0,88,0.00,,,0.00,WUHU21623XXSP,2013-09-18 11:56:00,
2013-09-18 08:01:00,62.4,58.9,30.18,East,90,0.0,0.0,88,0.00,,,0.00,WUHU21623XXSP,2013-09-18 12:01:00,
2013-09-18 08:06:00,62.8,59.2,30.18,NNE,22,0.0,0.0,88,0.00,,,0.00,WUHU21623XXSP,2013-09-18 12:06:00,
2013-09-18 08:11:00,63.0,59.4,30.18,ESE,112,0.0,0.0,88,0.00,,,0.00,WUHU21623XXSP,2013-09-18 12:11:00,
2013-09-18 08:16:00,63.3,59.8,30.19,ESE,112,0.0,0.0,88,0.00,,,0.00,WUHU21623XXSP,2013-09-18 12:16:00,
2013-09-18 08:21:00,63.5,59.9,30.19,ESE,112,0.0,0.0,88,0.00,,,0.00,WUHU21623XXSP,2013-09-18 12:21:00,
2013-09-18 08:26:00,63.7,60.1,30.19,ESE,112,0.0,0.0,88,0.00,,,0.00,WUHU21623XXSP,2013-09-18 12:26:00,
2013-09-18 08:31:00,64.2,60.7,30.19,NNE,22,0.0,0.0,88,0.00,,,0.00,WUHU21623XXSP,2013-09-18 12:31:00,
2013-09-18 08:37:00,64.6,61.0,30.19,South,180,0.0,0.0,88,0.00,,,0.00,WUHU21623XXSP,2013-09-18 12:37:00,
2013-09-18 08:42:00,65.1,61.2,30.19,South,180,0.0,0.0,87,0.00,,,0.00,WUHU21623XXSP,2013-09-18 12:42:00,
2013-09-18 08:47:00,65.8,61.8,30.19,SSW,202,0.0,0.0,87,0.00,,,0.00,WUHU21623XXSP,2013-09-18 12:47:00,
2013-09-18 08:52:00,66.4,62.0,30.19,SSW,202,0.0,0.0,86,0.00,,,0.00,WUHU21623XXSP,2013-09-18 12:52:00,
2013-09-18 08:57:00,66.7,62.4,30.19,WNW,292,0.0,0.0,86,0.00,,,0.00,WUHU21623XXSP,2013-09-18 12:57:00,
2013-09-18 09:02:00,67.3,62.6,30.19,SSW,202,0.0,0.0,85,0.00,,,0.00,WUHU21623XXSP,2013-09-18 13:02:00,
2013-09-18 09:07:00,67.3,62.3,30.19,SSW,202,0.0,0.0,84,0.00,,,0.00,WUHU21623XXSP,2013-09-18 13:07:00,
2013-09-18 09:12:00,67.6,62.6,30.19,WNW,292,0.0,0.0,84,0.00,,,0.00,WUHU21623XXSP,2013-09-18 13:12:00,
2013-09-18 09:17:00,67.8,62.5,30.20,ESE,112,1.4,1.7,83,0.00,,,0.00,WUHU21623XXSP,2013-09-18 13:17:00,
2013-09-18 09:22:00,67.8,62.5,30.19,West,270,0.0,1.7,83,0.00,,,0.00,WUHU21623XXSP,2013-09-18 13:22:00,
2013-09-18 09:27:00,68.2,62.5,30.19,WNW,292,0.0,1.7,82,0.00,,,0.00,WUHU21623XXSP,2013-09-18 13:27:00,
2013-09-18 09:32:00,68.5,62.8,30.20,North,0,0.0,1.7,82,0.00,,,0.00,WUHU21623XXSP,2013-09-18 13:32:00,
2013-09-18 09:37:00,68.7,63.0,30.20,West,270,0.0,0.0,82,0.00,,,0.00,WUHU21623XXSP,2013-09-18 13:37:00,
2013-09-18 09:42:00,68.7,62.7,30.20,NNE,22,0.0,0.0,81,0.00,,,0.00,WUHU21623XXSP,2013-09-18 13:42:00,
2013-09-18 09:47:00,68.7,62.7,30.20,SSW,202,0.0,0.0,81,0.00,,,0.00,WUHU21623XXSP,2013-09-18 13:47:00,
2013-09-18 09:52:00,68.9,62.8,30.20,WNW,292,0.0,0.0,81,0.00,,,0.00,WUHU21623XXSP,2013-09-18 13:52:00,
2013-09-18 09:58:00,68.9,62.5,30.20,West,270,0.0,0.0,80,0.00,,,0.00,WUHU21623XXSP,2013-09-18 13:58:00,
2013-09-18 10:03:00,69.1,62.7,30.21,WNW,292,0.0,0.0,80,0.00,,,0.00,WUHU21623XXSP,2013-09-18 14:03:00,
2013-09-18 10:08:00,69.6,62.8,30.20,WNW,292,0.0,0.0,79,0.00,,,0.00,WUHU21623XXSP,2013-09-18 14:08:00,
2013-09-18 10:13:00,69.8,62.9,30.21,ESE,112,0.0,0.0,79,0.00,,,0.00,WUHU21623XXSP,2013-09-18 14:13:00,
2013-09-18 10:18:00,70.0,62.7,30.21,West,270,0.0,0.0,78,0.00,,,0.00,WUHU21623XXSP,2013-09-18 14:18:00,
2013-09-18 10:23:00,70.3,62.0,30.21,North,0,2.9,3.3,75,0.00,,,0.00,WUHU21623XXSP,2013-09-18 14:23:00,
2013-09-18 10:28:00,70.3,62.3,30.21,West,270,0.0,3.3,76,0.00,,,0.00,WUHU21623XXSP,2013-09-18 14:28:00,
2013-09-18 10:33:00,70.3,62.3,30.21,SSW,202,0.9,3.3,76,0.00,,,0.00,WUHU21623XXSP,2013-09-18 14:33:00,
2013-09-18 10:38:00,70.3,61.6,30.21,West,270,0.0,1.9,74,0.00,,,0.00,WUHU21623XXSP,2013-09-18 14:38:00,
2013-09-18 10:43:00,70.3,62.0,30.21,ESE,112,0.0,1.3,75,0.00,,,0.00,WUHU21623XXSP,2013-09-18 14:43:00,
2013-09-18 10:48:00,70.3,61.6,30.21,West,270,0.0,0.0,74,0.00,,,0.00,WUHU21623XXSP,2013-09-18 14:48:00,
2013-09-18 10:53:00,70.7,62.3,30.20,West,270,0.0,0.0,75,0.00,,,0.00,WUHU21623XXSP,2013-09-18 14:53:00,
2013-09-18 10:58:00,70.9,62.5,30.21,WNW,292,0.0,0.0,75,0.00,,,0.00,WUHU21623XXSP,2013-09-18 14:58:00,
2013-09-18 11:03:00,70.9,62.5,30.21,North,0,0.0,0.0,75,0.00,,,0.00,WUHU21623XXSP,2013-09-18 15:03:00,
2013-09-18 11:08:00,70.7,62.0,30.20,ESE,112,2.6,3.0,74,0.00,,,0.00,WUHU21623XXSP,2013-09-18 15:08:00,
2013-09-18 11:13:00,71.1,62.7,30.21,South,180,0.0,3.0,75,0.00,,,0.00,WUHU21623XXSP,2013-09-18 15:13:00,
2013-09-18 11:18:00,71.2,62.5,30.20,South,180,0.0,3.0,74,0.00,,,0.00,WUHU21623XXSP,2013-09-18 15:18:00,
2013-09-18 11:24:00,71.4,62.7,30.20,SSW,202,0.0,2.7,74,0.00,,,0.00,WUHU21623XXSP,2013-09-18 15:24:00,
2013-09-18 11:29:00,71.8,63.0,30.20,West,270,0.0,1.7,74,0.00,,,0.00,WUHU21623XXSP,2013-09-18 15:29:00,
2013-09-18 11:34:00,71.4,61.9,30.20,ESE,112,0.0,2.4,72,0.00,,,0.00,WUHU21623XXSP,2013-09-18 15:34:00,
2013-09-18 11:39:00,71.2,61.7,30.20,North,0,0.0,2.4,72,0.00,,,0.00,WUHU21623XXSP,2013-09-18 15:39:00,
2013-09-18 11:44:00,71.2,61.7,30.20,North,0,0.0,0.0,72,0.00,,,0.00,WUHU21623XXSP,2013-09-18 15:44:00,
2013-09-18 11:49:00,71.4,62.7,30.20,South,180,0.0,0.0,74,0.00,,,0.00,WUHU21623XXSP,2013-09-18 15:49:00,
2013-09-18 11:54:00,72.0,62.8,30.20,WNW,292,0.0,0.0,73,0.00,,,0.00,WUHU21623XXSP,2013-09-18 15:54:00,
2013-09-18 11:59:00,72.3,62.4,30.20,WNW,292,0.0,0.0,71,0.00,,,0.00,WUHU21623XXSP,2013-09-18 15:59:00,
2013-09-18 12:04:00,72.3,62.4,30.20,North,0,0.0,0.0,71,0.00,,,0.00,WUHU21623XXSP,2013-09-18 16:04:00,
2013-09-18 12:09:00,72.7,62.8,30.19,South,180,1.4,1.7,71,0.00,,,0.00,WUHU21623XXSP,2013-09-18 16:09:00,
2013-09-18 12:14:00,73.0,63.2,30.20,West,270,0.0,1.7,71,0.00,,,0.00,WUHU21623XXSP,2013-09-18 16:14:00,
2013-09-18 12:19:00,72.9,62.6,30.19,West,270,0.0,1.7,70,0.00,,,0.00,WUHU21623XXSP,2013-09-18 16:19:00,
2013-09-18 12:24:00,72.9,63.0,30.19,ESE,112,0.0,0.0,71,0.00,,,0.00,WUHU21623XXSP,2013-09-18 16:24:00,
2013-09-18 12:29:00,73.0,63.2,30.19,WNW,292,0.0,0.0,71,0.00,,,0.00,WUHU21623XXSP,2013-09-18 16:29:00,
2013-09-18 12:34:00,73.2,63.0,30.20,ESE,112,0.0,0.0,70,0.00,,,0.00,WUHU21623XXSP,2013-09-18 16:34:00,
2013-09-18 12:40:00,73.8,63.5,30.19,West,270,0.0,0.0,70,0.00,,,0.00,WUHU21623XXSP,2013-09-18 16:40:00,
2013-09-18 12:45:00,74.5,63.2,30.19,SSW,202,0.0,2.4,68,0.00,,,0.00,WUHU21623XXSP,2013-09-18 16:45:00,
2013-09-18 12:50:00,75.0,62.9,30.19,East,90,0.0,2.4,66,0.00,,,0.00,WUHU21623XXSP,2013-09-18 16:50:00,
2013-09-18 12:55:00,75.7,63.8,30.18,WNW,292,0.0,0.0,67,0.00,,,0.00,WUHU21623XXSP,2013-09-18 16:55:00,
2013-09-18 13:00:00,75.7,63.1,30.18,WNW,292,1.7,1.9,65,0.00,,,0.00,WUHU21623XXSP,2013-09-18 17:00:00,
2013-09-18 13:05:00,75.4,62.3,30.18,North,0,0.0,3.0,64,0.00,,,0.00,WUHU21623XXSP,2013-09-18 17:05:00,
2013-09-18 13:10:00,77.2,64.0,30.18,NNE,22,0.0,3.0,64,0.00,,,0.00,WUHU21623XXSP,2013-09-18 17:10:00,
2013-09-18 13:15:00,78.6,65.0,30.18,WNW,292,0.0,1.9,63,0.00,,,0.00,WUHU21623XXSP,2013-09-18 17:15:00,
2013-09-18 13:20:00,79.5,64.5,30.18,West,270,2.1,2.4,60,0.00,,,0.00,WUHU21623XXSP,2013-09-18 17:20:00,
2013-09-18 13:25:00,78.1,64.0,30.18,North,0,0.0,2.4,62,0.00,,,0.00,WUHU21623XXSP,2013-09-18 17:25:00,
2013-09-18 13:30:00,78.6,65.0,30.18,ESE,112,1.7,2.4,63,0.00,,,0.00,WUHU21623XXSP,2013-09-18 17:30:00,
2013-09-18 13:35:00,78.4,64.4,30.18,SSW,202,2.1,2.4,62,0.00,,,0.00,WUHU21623XXSP,2013-09-18 17:35:00,
2013-09-18 13:40:00,77.5,63.5,30.17,North,0,0.0,2.4,62,0.00,,,0.00,WUHU21623XXSP,2013-09-18 17:40:00,
2013-09-18 13:45:00,76.8,63.7,30.17,East,90,0.0,3.0,64,0.00,,,0.00,WUHU21623XXSP,2013-09-18 17:45:00,
2013-09-18 13:50:00,77.2,64.0,30.17,North,0,0.0,3.0,64,0.00,,,0.00,WUHU21623XXSP,2013-09-18 17:50:00,
2013-09-18 13:55:00,78.4,64.8,30.17,WNW,292,1.4,1.7,63,0.00,,,0.00,WUHU21623XXSP,2013-09-18 17:55:00,
2013-09-18 14:00:00,78.6,64.5,30.16,SSW,202,0.0,1.7,62,0.00,,,0.00,WUHU21623XXSP,2013-09-18 18:00:00,
2013-09-18 14:05:00,78.8,65.2,30.16,West,270,0.0,1.7,63,0.00,,,0.00,WUHU21623XXSP,2013-09-18 18:05:00,
2013-09-18 14:10:00,78.1,64.5,30.16,West,270,0.0,3.0,63,0.00,,,0.00,WUHU21623XXSP,2013-09-18 18:10:00,
2013-09-18 14:16:00,77.7,64.1,30.16,South,180,0.0,3.0,63,0.00,,,0.00,WUHU21623XXSP,2013-09-18 18:16:00,
2013-09-18 14:21:00,77.5,64.4,30.16,WNW,292,3.5,4.1,64,0.00,,,0.00,WUHU21623XXSP,2013-09-18 18:21:00,
2013-09-18 14:26:00,77.0,63.9,30.16,WNW,292,0.0,4.1,64,0.00,,,0.00,WUHU21623XXSP,2013-09-18 18:26:00,
2013-09-18 14:31:00,77.7,64.1,30.16,WNW,292,0.0,4.1,63,0.00,,,0.00,WUHU21623XXSP,2013-09-18 18:31:00,
2013-09-18 14:36:00,78.4,63.9,30.16,WNW,292,1.2,1.7,61,0.00,,,0.00,WUHU21623XXSP,2013-09-18 18:36:00,
2013-09-18 14:41:00,79.5,64.9,30.15,SSW,202,2.1,2.4,61,0.00,,,0.00,WUHU21623XXSP,2013-09-18 18:41:00,
2013-09-18 14:46:00,79.9,64.8,30.15,WNW,292,0.0,2.4,60,0.00,,,0.00,WUHU21623XXSP,2013-09-18 18:46:00,
2013-09-18 14:51:00,80.4,64.8,30.14,West,270,0.0,2.4,59,0.00,,,0.00,WUHU21623XXSP,2013-09-18 18:51:00,
2013-09-18 14:56:00,80.1,65.0,30.15,WNW,292,0.0,1.3,60,0.00,,,0.00,WUHU21623XXSP,2013-09-18 18:56:00,
2013-09-18 15:01:00,79.7,63.6,30.14,SSW,202,2.1,2.4,58,0.00,,,0.00,WUHU21623XXSP,2013-09-18 19:01:00,
2013-09-18 15:06:00,79.5,64.5,30.14,West,270,0.0,2.4,60,0.00,,,0.00,WUHU21623XXSP,2013-09-18 19:06:00,
2013-09-18 15:11:00,79.5,64.5,30.14,West,270,0.0,2.4,60,0.00,,,0.00,WUHU21623XXSP,2013-09-18 19:11:00,
2013-09-18 15:16:00,79.2,64.2,30.14,NNE,22,2.1,2.4,60,0.00,,,0.00,WUHU21623XXSP,2013-09-18 19:16:00,
2013-09-18 15:21:00,79.0,64.5,30.14,West,270,0.0,2.4,61,0.00,,,0.00,WUHU21623XXSP,2013-09-18 19:21:00,
2013-09-18 15:26:00,78.6,64.1,30.13,WNW,292,0.0,2.4,61,0.00,,,0.00,WUHU21623XXSP,2013-09-18 19:26:00,
2013-09-18 15:31:00,78.8,64.3,30.13,WNW,292,2.3,2.7,61,0.00,,,0.00,WUHU21623XXSP,2013-09-18 19:31:00,
2013-09-18 15:36:00,79.3,64.8,30.13,WNW,292,0.0,2.7,61,0.00,,,0.00,WUHU21623XXSP,2013-09-18 19:36:00,
2013-09-18 15:41:00,79.9,64.8,30.13,West,270,0.0,2.7,60,0.00,,,0.00,WUHU21623XXSP,2013-09-18 19:41:00,
2013-09-18 15:47:00,79.5,64.5,30.13,WNW,292,0.0,0.0,60,0.00,,,0.00,WUHU21623XXSP,2013-09-18 19:47:00,
2013-09-18 15:52:00,79.3,64.8,30.13,West,270,0.0,1.3,61,0.00,,,0.00,WUHU21623XXSP,2013-09-18 19:52:00,
2013-09-18 15:57:00,78.6,64.1,30.13,SSW,202,0.0,1.3,61,0.00,,,0.00,WUHU21623XXSP,2013-09-18 19:57:00,
2013-09-18 16:02:00,78.6,65.0,30.12,North,0,0.0,0.0,63,0.00,,,0.00,WUHU21623XXSP,2013-09-18 20:02:00,
2013-09-18 16:07:00,78.1,64.5,30.12,SSW,202,1.2,1.3,63,0.00,,,0.00,WUHU21623XXSP,2013-09-18 20:07:00,
2013-09-18 16:12:00,77.7,64.1,30.12,NNE,22,0.0,1.3,63,0.00,,,0.00,WUHU21623XXSP,2013-09-18 20:12:00,
2013-09-18 16:17:00,77.7,64.1,30.12,WNW,292,0.0,1.3,63,0.00,,,0.00,WUHU21623XXSP,2013-09-18 20:17:00,
2013-09-18 16:22:00,77.7,64.1,30.12,South,180,0.0,0.0,63,0.00,,,0.00,WUHU21623XXSP,2013-09-18 20:22:00,
2013-09-18 16:27:00,77.7,65.0,30.11,West,270,0.0,1.7,65,0.00,,,0.00,WUHU21623XXSP,2013-09-18 20:27:00,
2013-09-18 16:32:00,77.4,64.2,30.11,WNW,292,0.0,1.7,64,0.00,,,0.00,WUHU21623XXSP,2013-09-18 20:32:00,
2013-09-18 16:37:00,77.4,63.8,30.11,North,0,0.0,1.7,63,0.00,,,0.00,WUHU21623XXSP,2013-09-18 20:37:00,
2013-09-18 16:42:00,77.5,63.5,30.11,South,180,1.2,1.7,62,0.00,,,0.00,WUHU21623XXSP,2013-09-18 20:42:00,
2013-09-18 16:47:00,77.9,64.3,30.11,SSW,202,0.0,1.3,63,0.00,,,0.00,WUHU21623XXSP,2013-09-18 20:47:00,
2013-09-18 16:52:00,78.6,64.1,30.11,North,0,0.0,1.3,61,0.00,,,0.00,WUHU21623XXSP,2013-09-18 20:52:00,
2013-09-18 16:58:00,78.6,64.5,30.11,WNW,292,0.0,0.0,62,0.00,,,0.00,WUHU21623XXSP,2013-09-18 20:58:00,
2013-09-18 17:03:00,78.4,64.4,30.11,SSW,202,1.7,1.9,62,0.00,,,0.00,WUHU21623XXSP,2013-09-18 21:03:00,
2013-09-18 17:08:00,77.5,63.5,30.11,WNW,292,0.0,1.9,62,0.00,,,0.00,WUHU21623XXSP,2013-09-18 21:08:00,
2013-09-18 17:16:00,77.2,63.6,30.11,West,270,0.0,0.0,63,0.00,,,0.00,WUHU21623XXSP,2013-09-18 21:16:00,
2013-09-18 17:21:00,76.8,63.7,30.11,ESE,112,0.0,0.0,64,0.00,,,0.00,WUHU21623XXSP,2013-09-18 21:21:00,
2013-09-18 17:26:00,76.8,64.6,30.11,West,270,0.0,0.0,66,0.00,,,0.00,WUHU21623XXSP,2013-09-18 21:26:00,
2013-09-18 17:31:00,76.6,64.8,30.11,SSW,202,0.0,0.0,67,0.00,,,0.00,WUHU21623XXSP,2013-09-18 21:31:00,
2013-09-18 17:37:00,76.6,64.8,30.11,West,270,0.0,0.0,67,0.00,,,0.00,WUHU21623XXSP,2013-09-18 21:37:00,
2013-09-18 17:42:00,76.3,64.5,30.11,West,270,0.0,0.0,67,0.00,,,0.00,WUHU21623XXSP,2013-09-18 21:42:00,
2013-09-18 17:47:00,76.1,64.8,30.11,West,270,0.0,0.0,68,0.00,,,0.00,WUHU21623XXSP,2013-09-18 21:47:00,
2013-09-18 17:52:00,75.9,65.0,30.11,SSW,202,0.0,0.0,69,0.00,,,0.00,WUHU21623XXSP,2013-09-18 21:52:00,
2013-09-18 17:57:00,75.7,65.7,30.11,SSW,202,0.0,0.0,71,0.00,,,0.00,WUHU21623XXSP,2013-09-18 21:57:00,
2013-09-18 18:02:00,75.6,65.5,30.11,South,180,0.0,0.0,71,0.00,,,0.00,WUHU21623XXSP,2013-09-18 22:02:00,
2013-09-18 18:07:00,75.4,66.1,30.10,SSW,202,0.0,0.0,73,0.00,,,0.00,WUHU21623XXSP,2013-09-18 22:07:00,
2013-09-18 18:12:00,75.0,66.2,30.11,SSW,202,0.0,0.0,74,0.00,,,0.00,WUHU21623XXSP,2013-09-18 22:12:00,
2013-09-18 18:18:00,75.0,66.2,30.10,South,180,0.0,0.0,74,0.00,,,0.00,WUHU21623XXSP,2013-09-18 22:18:00,
2013-09-18 18:23:00,74.8,66.4,30.10,SSW,202,0.0,0.0,75,0.00,,,0.00,WUHU21623XXSP,2013-09-18 22:23:00,
2013-09-18 18:28:00,74.5,66.1,30.10,SSW,202,0.0,0.0,75,0.00,,,0.00,WUHU21623XXSP,2013-09-18 22:28:00,
2013-09-18 18:33:00,74.3,65.9,30.10,South,180,0.0,0.0,75,0.00,,,0.00,WUHU21623XXSP,2013-09-18 22:33:00,
2013-09-18 18:38:00,74.3,66.3,30.10,South,180,0.0,0.0,76,0.00,,,0.00,WUHU21623XXSP,2013-09-18 22:38:00,
2013-09-18 18:43:00,74.1,66.9,30.10,ESE,112,0.0,0.0,78,0.00,,,0.00,WUHU21623XXSP,2013-09-18 22:43:00,
2013-09-18 18:48:00,74.3,67.0,30.10,South,180,0.0,0.0,78,0.00,,,0.00,WUHU21623XXSP,2013-09-18 22:48:00,
2013-09-18 18:54:00,74.3,67.4,30.10,SSW,202,0.0,0.0,79,0.00,,,0.00,WUHU21623XXSP,2013-09-18 22:54:00,
2013-09-18 18:59:00,74.1,67.2,30.11,ESE,112,0.0,0.0,79,0.00,,,0.00,WUHU21623XXSP,2013-09-18 22:59:00,
2013-09-18 19:04:00,74.1,66.9,30.11,East,90,0.0,0.0,78,0.00,,,0.00,WUHU21623XXSP,2013-09-18 23:04:00,
2013-09-18 19:09:00,74.1,66.9,30.11,ESE,112,0.0,0.0,78,0.00,,,0.00,WUHU21623XXSP,2013-09-18 23:09:00,
2013-09-18 19:14:00,73.9,66.7,30.11,South,180,0.0,0.0,78,0.00,,,0.00,WUHU21623XXSP,2013-09-18 23:14:00,
2013-09-18 19:19:00,73.6,66.7,30.11,SSW,202,0.0,0.0,79,0.00,,,0.00,WUHU21623XXSP,2013-09-18 23:19:00,
2013-09-18 19:24:00,73.2,66.4,30.11,East,90,0.0,0.0,79,0.00,,,0.00,WUHU21623XXSP,2013-09-18 23:24:00,
2013-09-18 19:29:00,73.0,66.2,30.10,East,90,0.0,0.0,79,0.00,,,0.00,WUHU21623XXSP,2013-09-18 23:29:00,
2013-09-18 19:35:00,72.7,65.8,30.10,East,90,0.0,0.0,79,0.00,,,0.00,WUHU21623XXSP,2013-09-18 23:35:00,
2013-09-18 19:40:00,72.3,65.5,30.10,East,90,0.0,0.0,79,0.00,,,0.00,WUHU21623XXSP,2013-09-18 23:40:00,
2013-09-18 19:45:00,72.1,65.3,30.11,East,90,0.0,0.0,79,0.00,,,0.00,WUHU21623XXSP,2013-09-18 23:45:00,
2013-09-18 19:50:00,71.8,64.9,30.11,East,90,0.0,0.0,79,0.00,,,0.00,WUHU21623XXSP,2013-09-18 23:50:00,
2013-09-18 19:55:00,71.4,64.6,30.11,ESE,112,0.0,0.0,79,0.00,,,0.00,WUHU21623XXSP,2013-09-18 23:55:00,
2013-09-18 20:00:00,71.4,64.6,30.11,East,90,0.0,0.0,79,0.00,,,0.00,WUHU21623XXSP,2013-09-19 00:00:00,
2013-09-18 20:05:00,71.2,64.8,30.11,ESE,112,0.0,0.0,80,0.00,,,0.00,WUHU21623XXSP,2013-09-19 00:05:00,
2013-09-18 20:10:00,71.2,64.8,30.11,ESE,112,0.0,0.0,80,0.00,,,0.00,WUHU21623XXSP,2013-09-19 00:10:00,
2013-09-18 20:15:00,71.2,64.8,30.11,East,90,0.0,0.0,80,0.00,,,0.00,WUHU21623XXSP,2013-09-19 00:15:00,
2013-09-18 20:20:00,70.9,64.7,30.11,ESE,112,0.0,0.0,81,0.00,,,0.00,WUHU21623XXSP,2013-09-19 00:20:00,
2013-09-18 20:25:00,70.9,64.7,30.11,ESE,112,0.0,0.0,81,0.00,,,0.00,WUHU21623XXSP,2013-09-19 00:25:00,
2013-09-18 20:31:00,70.7,64.6,30.11,ESE,112,0.0,0.0,81,0.00,,,0.00,WUHU21623XXSP,2013-09-19 00:31:00,
2013-09-18 20:36:00,70.5,64.4,30.11,ESE,112,0.0,0.0,81,0.00,,,0.00,WUHU21623XXSP,2013-09-19 00:36:00,
2013-09-18 20:41:00,70.5,64.7,30.12,ESE,112,0.0,0.0,82,0.00,,,0.00,WUHU21623XXSP,2013-09-19 00:41:00,
2013-09-18 20:46:00,70.3,64.5,30.11,South,180,0.0,0.0,82,0.00,,,0.00,WUHU21623XXSP,2013-09-19 00:46:00,
2013-09-18 20:51:00,70.3,64.2,30.11,ESE,112,0.0,0.0,81,0.00,,,0.00,WUHU21623XXSP,2013-09-19 00:51:00,
2013-09-18 20:56:00,70.2,64.4,30.12,ESE,112,0.0,0.0,82,0.00,,,0.00,WUHU21623XXSP,2013-09-19 00:56:00,
2013-09-18 21:01:00,70.0,64.2,30.12,ESE,112,0.0,0.0,82,0.00,,,0.00,WUHU21623XXSP,2013-09-19 01:01:00,
2013-09-18 21:06:00,69.6,63.8,30.12,South,180,0.0,0.0,82,0.00,,,0.00,WUHU21623XXSP,2013-09-19 01:06:00,
2013-09-18 21:11:00,69.4,63.7,30.12,ESE,112,0.0,0.0,82,0.00,,,0.00,WUHU21623XXSP,2013-09-19 01:11:00,
2013-09-18 21:16:00,68.9,63.5,30.12,ESE,112,0.0,0.0,83,0.00,,,0.00,WUHU21623XXSP,2013-09-19 01:16:00,
2013-09-18 21:21:00,68.7,63.7,30.12,ESE,112,15.5,17.8,84,0.00,,,0.00,WUHU21623XXSP,2013-09-19 01:21:00,
2013-09-18 21:26:00,68.5,63.5,30.13,ESE,112,0.0,17.8,84,0.00,,,0.00,WUHU21623XXSP,2013-09-19 01:26:00,
2013-09-18 21:31:00,68.2,63.2,30.13,ESE,112,0.0,17.8,84,0.00,,,0.00,WUHU21623XXSP,2013-09-19 01:31:00,
2013-09-18 21:36:00,68.2,63.2,30.13,ESE,112,0.0,0.0,84,0.00,,,0.00,WUHU21623XXSP,2013-09-19 01:36:00,
2013-09-18 21:42:00,67.8,63.1,30.13,ESE,112,0.0,0.0,85,0.00,,,0.00,WUHU21623XXSP,2013-09-19 01:42:00,
2013-09-18 21:47:00,68.2,63.2,30.13,ESE,112,0.0,0.0,84,0.00,,,0.00,WUHU21623XXSP,2013-09-19 01:47:00,
2013-09-18 21:52:00,68.2,63.2,30.13,ESE,112,0.0,0.0,84,0.00,,,0.00,WUHU21623XXSP,2013-09-19 01:52:00,
2013-09-18 21:57:00,68.0,63.3,30.13,East,90,0.0,0.0,85,0.00,,,0.00,WUHU21623XXSP,2013-09-19 01:57:00,
2013-09-18 22:02:00,67.8,63.1,30.13,NNE,22,0.0,0.0,85,0.00,,,0.00,WUHU21623XXSP,2013-09-19 02:02:00,
2013-09-18 22:07:00,67.8,63.1,30.13,NNE,22,0.0,0.0,85,0.00,,,0.00,WUHU21623XXSP,2013-09-19 02:07:00,
2013-09-18 22:12:00,67.6,63.0,30.13,East,90,0.0,0.0,85,0.00,,,0.00,WUHU21623XXSP,2013-09-19 02:12:00,
2013-09-18 22:17:00,67.6,63.0,30.13,East,90,0.0,0.0,85,0.00,,,0.00,WUHU21623XXSP,2013-09-19 02:17:00,
2013-09-18 22:22:00,67.6,63.0,30.13,ESE,112,0.0,0.0,85,0.00,,,0.00,WUHU21623XXSP,2013-09-19 02:22:00,
2013-09-18 22:27:00,67.6,63.3,30.13,South,180,0.0,0.0,86,0.00,,,0.00,WUHU21623XXSP,2013-09-19 02:27:00,
2013-09-18 22:32:00,67.3,62.9,30.13,East,90,0.0,0.0,86,0.00,,,0.00,WUHU21623XXSP,2013-09-19 02:32:00,
2013-09-18 22:37:00,67.3,62.9,30.13,East,90,0.0,0.0,86,0.00,,,0.00,WUHU21623XXSP,2013-09-19 02:37:00,
2013-09-18 22:42:00,67.1,62.7,30.13,NNE,22,0.0,0.0,86,0.00,,,0.00,WUHU21623XXSP,2013-09-19 02:42:00,
2013-09-18 22:47:00,66.7,62.4,30.13,North,0,0.0,0.0,86,0.00,,,0.00,WUHU21623XXSP,2013-09-19 02:47:00,
2013-09-18 22:52:00,66.6,62.2,30.13,ESE,112,0.0,0.0,86,0.00,,,0.00,WUHU21623XXSP,2013-09-19 02:52:00,
2013-09-18 22:57:00,66.4,62.3,30.13,East,90,0.0,0.0,87,0.00,,,0.00,WUHU21623XXSP,2013-09-19 02:57:00,
2013-09-18 23:03:00,66.2,62.2,30.13,East,90,0.0,0.0,87,0.00,,,0.00,WUHU21623XXSP,2013-09-19 03:03:00,
2013-09-18 23:08:00,66.0,62.0,30.13,NNE,22,0.0,0.0,87,0.00,,,0.00,WUHU21623XXSP,2013-09-19 03:08:00,
2013-09-18 23:13:00,66.0,62.0,30.13,East,90,0.0,0.0,87,0.00,,,0.00,WUHU21623XXSP,2013-09-19 03:13:00,
2013-09-18 23:18:00,65.8,61.8,30.13,East,90,0.0,0.0,87,0.00,,,0.00,WUHU21623XXSP,2013-09-19 03:18:00,
2013-09-18 23:23:00,65.8,61.8,30.13,NNE,22,0.0,0.0,87,0.00,,,0.00,WUHU21623XXSP,2013-09-19 03:23:00,
2013-09-18 23:28:00,65.7,61.7,30.13,NNE,22,0.0,0.0,87,0.00,,,0.00,WUHU21623XXSP,2013-09-19 03:28:00,
2013-09-18 23:33:00,65.5,61.5,30.13,South,180,1.7,1.9,87,0.00,,,0.00,WUHU21623XXSP,2013-09-19 03:33:00,
2013-09-18 23:38:00,65.5,61.5,30.13,East,90,0.0,1.9,87,0.00,,,0.00,WUHU21623XXSP,2013-09-19 03:38:00,
2013-09-18 23:43:00,65.3,61.3,30.13,East,90,0.0,1.9,87,0.00,,,0.00,WUHU21623XXSP,2013-09-19 03:43:00,
2013-09-18 23:48:00,65.1,61.5,30.14,NNE,22,0.0,0.0,88,0.00,,,0.00,WUHU21623XXSP,2013-09-19 03:48:00,
2013-09-18 23:53:00,65.1,61.5,30.14,ESE,112,0.0,0.0,88,0.00,,,0.00,WUHU21623XXSP,2013-09-19 03:53:00,
2013-09-18 23:58:00,64.9,61.3,30.14,East,90,0.0,0.0,88,0.00,,,0.00,WUHU21623XXSP,2013-09-19 03:58:00,